Time,TemperatureF,DewpointF,PressureIn,WindDirection,WindDirectionDegrees,WindSpeedMPH,WindSpeedGustMPH,Humidity,HourlyPrecipIn,Conditions,Clouds,dailyrainin,SoftwareType,DateUTC
2013-01-21 00:03:00,41.6,19.0,30.20,NNW,341,4.0,10.0,40,0.00,,,0.00,weatherlink.com 1.10,2013-01-21 05:03:00,
2013-01-21 00:18:00,41.3,18.0,30.19,NNW,342,2.0,8.0,39,0.00,,,0.00,weatherlink.com 1.10,2013-01-21 05:18:00,
2013-01-21 00:33:00,40.7,19.0,30.19,WNW,295,2.0,7.0,41,0.00,,,0.00,weatherlink.com 1.10,2013-01-21 05:33:00,
2013-01-21 00:48:00,40.3,17.0,30.18,North,354,3.0,6.0,39,0.00,,,0.00,weatherlink.com 1.10,2013-01-21 05:48:00,
2013-01-21 01:03:00,40.2,16.0,30.18,North,349,2.0,6.0,38,0.00,,,0.00,weatherlink.com 1.10,2013-01-21 06:03:00,
2013-01-21 01:18:00,39.9,17.0,30.19,NNW,332,2.0,5.0,39,0.00,,,0.00,weatherlink.com 1.10,2013-01-21 06:18:00,
2013-01-21 01:33:00,39.5,16.0,30.19,NNW,331,2.0,4.0,39,0.00,,,0.00,weatherlink.com 1.10,2013-01-21 06:33:00,
2013-01-21 01:48:00,39.4,16.0,30.19,NNW,337,2.0,4.0,38,0.00,,,0.00,weatherlink.com 1.10,2013-01-21 06:48:00,
2013-01-21 02:03:00,39.0,16.0,30.19,NNW,330,1.0,2.0,39,0.00,,,0.00,weatherlink.com 1.10,2013-01-21 07:03:00,
2013-01-21 02:18:00,39.2,16.0,30.19,NNE,18,0.0,3.0,39,0.00,,,0.00,weatherlink.com 1.10,2013-01-21 07:18:00,
2013-01-21 02:33:00,39.0,16.0,30.19,North,4,0.0,2.0,40,0.00,,,0.00,weatherlink.com 1.10,2013-01-21 07:33:00,
2013-01-21 02:49:00,38.7,16.0,30.18,North,358,2.0,3.0,40,0.00,,,0.00,weatherlink.com 1.10,2013-01-21 07:49:00,
2013-01-21 03:04:00,38.5,16.0,30.18,North,356,2.0,3.0,40,0.00,,,0.00,weatherlink.com 1.10,2013-01-21 08:04:00,
2013-01-21 03:19:00,38.3,16.0,30.18,North,1,2.0,2.0,41,0.00,,,0.00,weatherlink.com 1.10,2013-01-21 08:19:00,
2013-01-21 03:34:00,37.9,16.0,30.18,NNW,347,0.0,2.0,41,0.00,,,0.00,weatherlink.com 1.10,2013-01-21 08:34:00,
2013-01-21 03:49:00,37.9,16.0,30.18,West,271,3.0,3.0,41,0.00,,,0.00,weatherlink.com 1.10,2013-01-21 08:49:00,
2013-01-21 04:04:00,35.9,17.0,30.18,NW,307,4.0,6.0,47,0.00,,,0.00,weatherlink.com 1.10,2013-01-21 09:04:00,
2013-01-21 04:19:00,35.7,18.0,30.17,NW,306,4.0,6.0,48,0.00,,,0.00,weatherlink.com 1.10,2013-01-21 09:19:00,
2013-01-21 04:34:00,34.8,18.0,30.17,NW,304,2.0,5.0,51,0.00,,,0.00,weatherlink.com 1.10,2013-01-21 09:34:00,
2013-01-21 04:49:00,35.8,17.0,30.17,NW,304,4.0,5.0,46,0.00,,,0.00,weatherlink.com 1.10,2013-01-21 09:49:00,
2013-01-21 05:04:00,36.4,16.0,30.17,West,275,4.0,4.0,44,0.00,,,0.00,weatherlink.com 1.10,2013-01-21 10:04:00,
2013-01-21 05:19:00,36.2,16.0,30.17,WNW,300,5.0,6.0,44,0.00,,,0.00,weatherlink.com 1.10,2013-01-21 10:19:00,
2013-01-21 05:34:00,36.8,16.0,30.16,WSW,244,4.0,5.0,43,0.00,,,0.00,weatherlink.com 1.10,2013-01-21 10:34:00,
2013-01-21 05:49:00,37.0,16.0,30.16,West,274,3.0,4.0,43,0.00,,,0.00,weatherlink.com 1.10,2013-01-21 10:49:00,
2013-01-21 06:04:00,36.9,16.0,30.16,SW,233,3.0,5.0,43,0.00,,,0.00,weatherlink.com 1.10,2013-01-21 11:04:00,
2013-01-21 06:19:00,36.5,17.0,30.16,West,261,0.0,3.0,46,0.00,,,0.00,weatherlink.com 1.10,2013-01-21 11:19:00,
2013-01-21 06:34:00,35.8,18.0,30.16,South,172,1.0,3.0,49,0.00,,,0.00,weatherlink.com 1.10,2013-01-21 11:34:00,
2013-01-21 06:49:00,36.5,19.0,30.16,SW,220,1.0,4.0,50,0.00,,,0.00,weatherlink.com 1.10,2013-01-21 11:49:00,
2013-01-21 07:04:00,34.4,18.0,30.17,WSW,256,1.0,3.0,51,0.00,,,0.00,weatherlink.com 1.10,2013-01-21 12:04:00,
2013-01-21 07:19:00,34.4,20.0,30.18,WNW,282,1.0,4.0,57,0.00,,,0.00,weatherlink.com 1.10,2013-01-21 12:19:00,
2013-01-21 07:34:00,33.3,23.0,30.18,West,274,4.0,7.0,66,0.00,,,0.00,weatherlink.com 1.10,2013-01-21 12:34:00,
2013-01-21 07:49:00,32.9,24.0,30.18,West,269,5.0,7.0,69,0.00,,,0.00,weatherlink.com 1.10,2013-01-21 12:49:00,
2013-01-21 08:04:00,33.5,24.0,30.19,WNW,298,7.0,8.0,69,0.00,,,0.00,weatherlink.com 1.10,2013-01-21 13:04:00,
2013-01-21 08:19:00,32.8,24.0,30.19,WNW,299,4.0,6.0,71,0.00,,,0.00,weatherlink.com 1.10,2013-01-21 13:19:00,
2013-01-21 08:34:00,31.9,25.0,30.20,ENE,65,1.0,4.0,74,0.00,,,0.00,weatherlink.com 1.10,2013-01-21 13:34:00,
2013-01-21 08:49:00,33.0,24.0,30.20,NW,310,4.0,5.0,69,0.00,,,0.00,weatherlink.com 1.10,2013-01-21 13:49:00,
2013-01-21 09:04:00,33.8,23.0,30.21,NNW,337,3.0,6.0,66,0.00,,,0.00,weatherlink.com 1.10,2013-01-21 14:04:00,
2013-01-21 09:19:00,34.8,24.0,30.22,NE,42,2.0,7.0,64,0.00,,,0.00,weatherlink.com 1.10,2013-01-21 14:19:00,
2013-01-21 09:34:00,35.3,24.0,30.22,WNW,297,3.0,6.0,63,0.00,,,0.00,weatherlink.com 1.10,2013-01-21 14:34:00,
2013-01-21 09:49:00,36.3,23.0,30.23,NW,312,2.0,4.0,58,0.00,,,0.00,weatherlink.com 1.10,2013-01-21 14:49:00,
2013-01-21 10:04:00,36.3,22.0,30.24,WNW,302,3.0,5.0,57,0.00,,,0.00,weatherlink.com 1.10,2013-01-21 15:04:00,
2013-01-21 10:19:00,37.0,23.0,30.24,WNW,285,3.0,5.0,57,0.00,,,0.00,weatherlink.com 1.10,2013-01-21 15:19:00,
2013-01-21 10:34:00,38.2,24.0,30.25,NNE,25,1.0,4.0,56,0.00,,,0.00,weatherlink.com 1.10,2013-01-21 15:34:00,
2013-01-21 10:49:00,40.1,22.0,30.25,NW,312,3.0,6.0,48,0.00,,,0.00,weatherlink.com 1.10,2013-01-21 15:49:00,
2013-01-21 11:04:00,39.8,22.0,30.24,NW,304,7.0,8.0,49,0.00,,,0.00,weatherlink.com 1.10,2013-01-21 16:04:00,
2013-01-21 11:19:00,39.9,20.0,30.24,NW,314,7.0,9.0,45,0.00,,,0.00,weatherlink.com 1.10,2013-01-21 16:19:00,
2013-01-21 11:34:00,40.6,21.0,30.24,WNW,293,8.0,9.0,45,0.00,,,0.00,weatherlink.com 1.10,2013-01-21 16:34:00,
2013-01-21 11:49:00,41.3,21.0,30.23,WSW,255,5.0,8.0,44,0.00,,,0.00,weatherlink.com 1.10,2013-01-21 16:49:00,
2013-01-21 12:05:00,41.6,20.0,30.22,NE,51,3.0,9.0,43,0.00,,,0.00,weatherlink.com 1.10,2013-01-21 17:05:00,
2013-01-21 12:20:00,42.7,19.0,30.21,WNW,291,3.0,10.0,39,0.00,,,0.00,weatherlink.com 1.10,2013-01-21 17:20:00,
2013-01-21 12:35:00,42.5,20.0,30.20,NW,306,5.0,11.0,41,0.00,,,0.00,weatherlink.com 1.10,2013-01-21 17:35:00,
2013-01-21 12:50:00,43.8,18.0,30.19,WNW,297,4.0,13.0,36,0.00,,,0.00,weatherlink.com 1.10,2013-01-21 17:50:00,
2013-01-21 13:05:00,43.6,16.0,30.19,WNW,299,9.0,14.0,33,0.00,,,0.00,weatherlink.com 1.10,2013-01-21 18:05:00,
2013-01-21 13:20:00,43.1,15.0,30.18,SE,141,4.0,20.0,32,0.00,,,0.00,weatherlink.com 1.10,2013-01-21 18:20:00,
2013-01-21 13:35:00,43.3,14.0,30.18,WNW,289,16.0,19.0,31,0.00,,,0.00,weatherlink.com 1.10,2013-01-21 18:35:00,
2013-01-21 13:50:00,41.9,13.0,30.18,WNW,284,14.0,25.0,31,0.00,,,0.00,weatherlink.com 1.10,2013-01-21 18:50:00,
2013-01-21 14:05:00,42.1,14.0,30.18,West,263,15.0,19.0,32,0.00,,,0.00,weatherlink.com 1.10,2013-01-21 19:05:00,
2013-01-21 14:20:00,42.0,13.0,30.18,WNW,283,14.0,22.0,31,0.00,,,0.00,weatherlink.com 1.10,2013-01-21 19:20:00,
2013-01-21 14:35:00,41.9,12.0,30.18,West,273,9.0,21.0,30,0.00,,,0.00,weatherlink.com 1.10,2013-01-21 19:35:00,
2013-01-21 14:50:00,42.1,12.0,30.18,NNW,330,8.0,22.0,29,0.00,,,0.00,weatherlink.com 1.10,2013-01-21 19:50:00,
2013-01-21 15:05:00,42.5,12.0,30.18,NW,305,12.0,19.0,29,0.00,,,0.00,weatherlink.com 1.10,2013-01-21 20:05:00,
2013-01-21 15:20:00,43.1,13.0,30.17,West,273,17.0,19.0,29,0.00,,,0.00,weatherlink.com 1.10,2013-01-21 20:20:00,
2013-01-21 15:35:00,43.1,12.0,30.18,WNW,285,18.0,24.0,28,0.00,,,0.00,weatherlink.com 1.10,2013-01-21 20:35:00,
2013-01-21 15:50:00,43.4,12.0,30.18,WNW,297,14.0,28.0,28,0.00,,,0.00,weatherlink.com 1.10,2013-01-21 20:50:00,
2013-01-21 16:05:00,43.2,12.0,30.18,WNW,293,20.0,28.0,28,0.00,,,0.00,weatherlink.com 1.10,2013-01-21 21:05:00,
2013-01-21 16:20:00,43.5,13.0,30.19,West,266,22.0,23.0,29,0.00,,,0.00,weatherlink.com 1.10,2013-01-21 21:20:00,
2013-01-21 16:35:00,42.7,13.0,30.18,West,279,15.0,25.0,30,0.00,,,0.00,weatherlink.com 1.10,2013-01-21 21:35:00,
2013-01-21 16:50:00,42.2,14.0,30.19,WNW,288,17.0,27.0,32,0.00,,,0.00,weatherlink.com 1.10,2013-01-21 21:50:00,
2013-01-21 17:05:00,41.9,14.0,30.19,WNW,291,17.0,22.0,32,0.00,,,0.00,weatherlink.com 1.10,2013-01-21 22:05:00,
2013-01-21 17:20:00,41.4,13.0,30.18,West,259,18.0,28.0,32,0.00,,,0.00,weatherlink.com 1.10,2013-01-21 22:20:00,
2013-01-21 17:35:00,40.2,14.0,30.18,WNW,293,12.0,26.0,34,0.00,,,0.00,weatherlink.com 1.10,2013-01-21 22:35:00,
2013-01-21 17:50:00,39.4,14.0,30.19,West,268,5.0,24.0,35,0.00,,,0.00,weatherlink.com 1.10,2013-01-21 22:50:00,
2013-01-21 18:05:00,38.6,14.0,30.20,WNW,288,17.0,19.0,36,0.00,,,0.00,weatherlink.com 1.10,2013-01-21 23:05:00,
2013-01-21 18:20:00,38.3,13.0,30.20,WNW,299,9.0,22.0,35,0.00,,,0.00,weatherlink.com 1.10,2013-01-21 23:20:00,
2013-01-21 18:35:00,37.7,13.0,30.20,WNW,297,6.0,14.0,37,0.00,,,0.00,weatherlink.com 1.10,2013-01-21 23:35:00,
2013-01-21 18:50:00,37.3,13.0,30.21,WNW,295,6.0,16.0,37,0.00,,,0.00,weatherlink.com 1.10,2013-01-21 23:50:00,
2013-01-21 19:05:00,36.8,13.0,30.21,NW,307,6.0,15.0,38,0.00,,,0.00,weatherlink.com 1.10,2013-01-22 00:05:00,
2013-01-21 19:20:00,36.3,14.0,30.22,WNW,293,8.0,12.0,40,0.00,,,0.00,weatherlink.com 1.10,2013-01-22 00:20:00,
2013-01-21 19:35:00,35.6,14.0,30.22,WNW,295,13.0,13.0,41,0.00,,,0.00,weatherlink.com 1.10,2013-01-22 00:35:00,
2013-01-21 19:50:00,35.2,11.0,30.23,West,275,14.0,25.0,37,0.00,,,0.00,weatherlink.com 1.10,2013-01-22 00:50:00,
2013-01-21 20:05:00,34.8,10.0,30.23,SSW,204,5.0,23.0,35,0.00,,,0.00,weatherlink.com 1.10,2013-01-22 01:05:00,
2013-01-21 20:20:00,34.1,11.0,30.24,WNW,285,14.0,15.0,39,0.00,,,0.00,weatherlink.com 1.10,2013-01-22 01:20:00,
2013-01-21 20:35:00,33.5,11.0,30.24,NW,310,11.0,18.0,40,0.00,,,0.00,weatherlink.com 1.10,2013-01-22 01:35:00,
2013-01-21 20:50:00,33.2,11.0,30.25,WNW,295,10.0,22.0,40,0.00,,,0.00,weatherlink.com 1.10,2013-01-22 01:50:00,
2013-01-21 21:05:00,32.8,11.0,30.26,WNW,288,1.0,13.0,40,0.00,,,0.00,weatherlink.com 1.10,2013-01-22 02:05:00,
2013-01-21 21:20:00,32.4,11.0,30.26,WNW,298,5.0,14.0,41,0.00,,,0.00,weatherlink.com 1.10,2013-01-22 02:20:00,
2013-01-21 21:35:00,31.8,10.0,30.26,WNW,303,15.0,16.0,41,0.00,,,0.00,weatherlink.com 1.10,2013-01-22 02:35:00,
2013-01-21 21:50:00,31.3,11.0,30.27,West,277,3.0,19.0,42,0.00,,,0.00,weatherlink.com 1.10,2013-01-22 02:50:00,
2013-01-21 22:05:00,30.9,11.0,30.27,WNW,282,11.0,12.0,43,0.00,,,0.00,weatherlink.com 1.10,2013-01-22 03:05:00,
2013-01-21 22:20:00,30.5,11.0,30.28,West,281,11.0,12.0,44,0.00,,,0.00,weatherlink.com 1.10,2013-01-22 03:20:00,
2013-01-21 22:35:00,30.2,10.0,30.28,WNW,291,9.0,13.0,43,0.00,,,0.00,weatherlink.com 1.10,2013-01-22 03:35:00,
2013-01-21 22:51:00,29.8,10.0,30.29,NW,321,8.0,10.0,44,0.00,,,0.00,weatherlink.com 1.10,2013-01-22 03:51:00,
2013-01-21 23:06:00,29.4,10.0,30.29,WNW,290,8.0,11.0,45,0.00,,,0.00,weatherlink.com 1.10,2013-01-22 04:06:00,
2013-01-21 23:21:00,29.1,11.0,30.30,WNW,291,7.0,12.0,46,0.00,,,0.00,weatherlink.com 1.10,2013-01-22 04:21:00,
2013-01-21 23:36:00,28.7,11.0,30.30,NW,304,1.0,8.0,47,0.00,,,0.00,weatherlink.com 1.10,2013-01-22 04:36:00,
2013-01-21 23:51:00,28.7,12.0,30.30,ENE,77,1.0,3.0,50,0.00,,,0.00,weatherlink.com 1.10,2013-01-22 04:51:00,